createdAt,value
2019-03-30T00:01:03.547Z,14.23
2019-03-30T00:06:03.805Z,13.33
2019-03-30T00:11:04.045Z,11.67
2019-03-30T00:16:04.521Z,15.07
2019-03-30T00:21:04.786Z,19.33
2019-03-30T00:26:05.012Z,14.90
2019-03-30T00:31:05.169Z,14.10
2019-03-30T00:36:05.486Z,11.90
2019-03-30T00:41:05.670Z,13.77
2019-03-30T00:46:05.826Z,14.53
2019-03-30T00:51:06.006Z,15.07
2019-03-30T00:56:06.186Z,15.83
2019-03-30T01:01:07.677Z,15.33
2019-03-30T01:06:07.869Z,12.83
2019-03-30T01:11:08.197Z,17.30
2019-03-30T01:16:08.665Z,14.40
2019-03-30T01:21:08.905Z,21.93
2019-03-30T01:26:10.146Z,15.23
2019-03-30T01:31:10.462Z,14.63
2019-03-30T01:36:10.657Z,15.20
2019-03-30T01:41:11.161Z,12.73
2019-03-30T01:46:11.330Z,12.40
2019-03-30T01:51:11.507Z,11.83
2019-03-30T01:56:11.673Z,17.00
2019-03-30T02:01:12.029Z,12.97
2019-03-30T02:06:12.197Z,16.03
2019-03-30T02:11:12.381Z,16.27
2019-03-30T02:16:12.573Z,13.23
2019-03-30T02:21:12.745Z,13.27
2019-03-30T02:26:13.030Z,19.20
2019-03-30T02:31:13.361Z,13.13
2019-03-30T02:36:13.554Z,13.17
2019-03-30T02:41:13.822Z,12.17
2019-03-30T02:46:14.039Z,13.43
2019-03-30T02:51:14.221Z,17.20
2019-03-30T02:56:14.394Z,13.97
2019-03-30T03:01:14.899Z,13.30
2019-03-30T03:06:15.231Z,14.23
2019-03-30T03:11:15.386Z,12.50
2019-03-30T03:16:15.535Z,13.43
2019-03-30T03:21:15.714Z,12.30
2019-03-30T03:26:15.883Z,13.67
2019-03-30T03:31:16.328Z,15.30
2019-03-30T03:36:16.515Z,11.80
2019-03-30T03:41:17.743Z,15.40
2019-03-30T03:46:18.274Z,14.27
2019-03-30T03:51:26.093Z,18.40
2019-03-30T03:56:24.838Z,14.10
2019-03-30T04:01:27.525Z,12.70
2019-03-30T04:06:30.442Z,15.57
2019-03-30T04:11:32.351Z,21.03
2019-03-30T04:16:32.851Z,20.73
2019-03-30T04:21:43.651Z,17.10
2019-03-30T04:26:35.276Z,17.67
2019-03-30T04:31:35.464Z,15.10
2019-03-30T04:36:35.987Z,16.63
2019-03-30T04:41:36.150Z,20.70
2019-03-30T04:46:36.374Z,21.63
2019-03-30T04:51:36.860Z,14.20
2019-03-30T04:56:37.060Z,28.50
2019-03-30T05:01:37.228Z,13.10
2019-03-30T05:06:37.718Z,22.33
2019-03-30T05:11:37.893Z,19.43
2019-03-30T05:16:38.106Z,16.93
2019-03-30T05:21:38.353Z,20.87
2019-03-30T05:26:38.927Z,19.23
2019-03-30T05:31:39.114Z,21.93
2019-03-30T05:36:39.286Z,18.50
2019-03-30T05:41:39.782Z,19.93
2019-03-30T05:46:40.515Z,22.80
2019-03-30T05:51:40.723Z,20.30
2019-03-30T05:56:40.931Z,21.67
2019-03-30T06:01:41.146Z,18.70
2019-03-30T06:06:41.334Z,24.13
2019-03-30T06:11:41.566Z,18.27
2019-03-30T06:16:42.006Z,17.83
2019-03-30T06:21:42.529Z,19.63
2019-03-30T06:26:42.719Z,25.37
2019-03-30T06:31:45.303Z,21.83
2019-03-30T06:36:45.177Z,23.47
2019-03-30T06:41:45.711Z,20.10
2019-03-30T06:46:45.962Z,25.97
2019-03-30T06:51:46.150Z,22.10
2019-03-30T06:56:46.334Z,18.23
2019-03-30T07:01:46.587Z,21.07
2019-03-30T07:06:48.247Z,17.80
2019-03-30T07:11:49.919Z,20.07
2019-03-30T07:16:52.002Z,19.73
2019-03-30T07:21:52.783Z,16.67
2019-03-30T07:26:53.293Z,17.47
2019-03-30T07:31:53.834Z,19.43
2019-03-30T07:36:54.033Z,17.27
2019-03-30T07:41:54.762Z,23.80
2019-03-30T07:46:55.218Z,14.77
2019-03-30T07:51:55.743Z,18.13
2019-03-30T07:57:05.427Z,12.27
2019-03-30T08:01:57.883Z,25.70
2019-03-30T08:06:58.078Z,12.87
2019-03-30T08:11:58.270Z,17.80
2019-03-30T08:16:58.434Z,19.70
2019-03-30T08:21:58.598Z,22.33
2019-03-30T08:26:58.794Z,18.43
2019-03-30T08:31:59.026Z,20.40
2019-03-30T08:36:59.535Z,14.03
2019-03-30T08:42:00.078Z,21.63
2019-03-30T08:47:00.342Z,16.03
2019-03-30T08:52:00.810Z,14.40
2019-03-30T08:57:01.096Z,12.37
2019-03-30T09:02:01.274Z,13.10
2019-03-30T09:07:01.774Z,11.67
2019-03-30T09:12:01.954Z,11.77
2019-03-30T09:17:02.177Z,11.33
2019-03-30T09:22:02.436Z,8.80
2019-03-30T09:27:02.626Z,9.70
2019-03-30T09:32:13.788Z,15.70
2019-03-30T09:37:05.942Z,9.80
2019-03-30T09:42:06.146Z,7.40
2019-03-30T09:47:06.326Z,5.80
2019-03-30T09:52:06.524Z,7.40
2019-03-30T09:57:06.715Z,7.00
2019-03-30T10:02:07.004Z,10.10
2019-03-30T10:07:07.416Z,4.87
2019-03-30T10:12:07.586Z,7.90
2019-03-30T10:17:08.298Z,5.23
2019-03-30T10:22:09.873Z,5.47
2019-03-30T10:27:10.622Z,4.40
2019-03-30T10:32:10.814Z,5.63
2019-03-30T10:37:11.086Z,4.27
2019-03-30T10:42:11.278Z,7.23
2019-03-30T10:47:11.747Z,5.27
2019-03-30T10:52:11.919Z,4.13
2019-03-30T10:57:12.091Z,6.20
2019-03-30T11:02:12.314Z,4.33
2019-03-30T11:07:12.866Z,5.03
2019-03-30T11:12:13.354Z,3.43
2019-03-30T11:17:14.152Z,5.77
2019-03-30T11:22:14.578Z,4.30
2019-03-30T11:27:14.745Z,6.60
2019-03-30T11:32:14.922Z,5.90
2019-03-30T11:37:15.086Z,4.77
2019-03-30T11:42:15.273Z,5.63
2019-03-30T11:47:15.507Z,9.70
2019-03-30T11:52:15.738Z,4.33
2019-03-30T11:57:15.955Z,8.03
2019-03-30T12:02:27.392Z,5.20
2019-03-30T12:07:17.999Z,5.60
2019-03-30T12:12:18.151Z,7.63
2019-03-30T12:17:18.314Z,4.50
2019-03-30T12:22:18.594Z,8.00
2019-03-30T12:27:18.842Z,5.90
2019-03-30T12:32:19.106Z,7.27
2019-03-30T12:37:20.392Z,4.80
2019-03-30T12:42:20.574Z,14.83
2019-03-30T12:47:20.854Z,5.37
2019-03-30T12:52:21.041Z,7.10
2019-03-30T12:57:21.502Z,5.57
2019-03-30T13:02:21.686Z,6.37
2019-03-30T13:07:22.118Z,9.90
2019-03-30T13:12:22.307Z,4.87
2019-03-30T13:17:22.595Z,5.87
2019-03-30T13:22:22.802Z,5.70
2019-03-30T13:27:23.302Z,14.80
2019-03-30T13:32:23.486Z,7.67
2019-03-30T13:37:23.773Z,5.33
2019-03-30T13:42:24.005Z,8.20
2019-03-30T13:47:25.182Z,7.63
2019-03-30T13:52:25.371Z,7.57
2019-03-30T13:57:25.875Z,10.50
2019-03-30T14:02:26.080Z,5.13
2019-03-30T14:07:26.248Z,11.70
2019-03-30T14:12:26.732Z,7.07
2019-03-30T14:17:27.343Z,7.17
2019-03-30T14:22:27.531Z,5.00
2019-03-30T14:27:28.113Z,7.00
2019-03-30T14:32:28.314Z,5.30
2019-03-30T14:37:28.546Z,11.47
2019-03-30T14:42:28.730Z,9.30
2019-03-30T14:47:28.930Z,6.57
2019-03-30T14:52:30.123Z,11.10
2019-03-30T14:57:30.323Z,8.50
2019-03-30T15:02:30.578Z,9.20
2019-03-30T15:07:30.775Z,10.23
2019-03-30T15:12:30.962Z,8.17
2019-03-30T15:17:31.140Z,8.67
2019-03-30T15:22:31.322Z,6.73
2019-03-30T15:27:32.491Z,6.73
2019-03-30T15:32:32.765Z,7.43
2019-03-30T15:37:33.244Z,10.40
2019-03-30T15:42:33.702Z,10.90
2019-03-30T15:47:34.246Z,11.23
2019-03-30T15:52:34.450Z,7.97
2019-03-30T15:57:34.767Z,11.27
2019-03-30T16:02:34.957Z,6.73
2019-03-30T16:07:36.272Z,7.93
2019-03-30T16:12:36.678Z,6.73
2019-03-30T16:17:36.877Z,8.50
2019-03-30T16:22:37.158Z,7.17
2019-03-30T16:27:39.242Z,5.40
2019-03-30T16:32:39.437Z,14.40
2019-03-30T16:37:39.887Z,7.80
2019-03-30T16:42:40.076Z,13.90
2019-03-30T16:47:40.267Z,10.37
2019-03-30T16:52:41.181Z,9.10
2019-03-30T16:57:44.090Z,6.67
2019-03-30T17:02:43.586Z,7.37
2019-03-30T17:07:44.031Z,10.60
2019-03-30T17:12:44.499Z,8.30
2019-03-30T17:17:44.719Z,9.20
2019-03-30T17:22:44.898Z,9.07
2019-03-30T17:27:57.428Z,9.40
2019-03-30T17:32:47.075Z,12.33
2019-03-30T17:37:47.283Z,11.97
2019-03-30T17:42:47.550Z,7.67
2019-03-30T17:47:47.746Z,9.17
2019-03-30T17:52:47.982Z,9.23
2019-03-30T17:57:48.420Z,7.97
2019-03-30T18:02:48.763Z,11.90
2019-03-30T18:07:48.958Z,10.00
2019-03-30T18:12:49.154Z,11.63
2019-03-30T18:17:50.039Z,9.90
2019-03-30T18:22:50.595Z,11.60
2019-03-30T18:27:50.843Z,5.70
2019-03-30T18:32:53.456Z,7.00
2019-03-30T18:37:53.958Z,7.57
2019-03-30T18:42:54.454Z,10.00
2019-03-30T18:47:57.238Z,9.73
2019-03-30T18:52:58.142Z,15.27
2019-03-30T18:57:59.153Z,18.33
2019-03-30T19:02:59.370Z,34.70
2019-03-30T19:07:59.573Z,32.60
2019-03-30T19:13:00.057Z,45.87
2019-03-30T19:18:00.329Z,37.30
2019-03-30T19:23:00.774Z,35.57
2019-03-30T19:28:01.107Z,53.13
2019-03-30T19:33:01.335Z,63.80
2019-03-30T19:38:01.628Z,61.30
2019-03-30T19:43:01.815Z,54.93
2019-03-30T19:48:02.178Z,46.30
2019-03-30T19:53:02.354Z,47.73
2019-03-30T19:58:03.707Z,56.00
2019-03-30T20:03:04.267Z,50.60
2019-03-30T20:08:12.053Z,59.20
2019-03-30T20:13:09.229Z,58.50
2019-03-30T20:18:08.374Z,59.87
2019-03-30T20:23:08.578Z,61.73
2019-03-30T20:28:08.752Z,74.53
2019-03-30T20:33:09.021Z,71.67
2019-03-30T20:38:09.227Z,86.20
2019-03-30T20:43:09.447Z,76.47
2019-03-30T20:48:09.654Z,71.00
2019-03-30T20:53:09.950Z,72.30
2019-03-30T20:58:10.165Z,70.33
2019-03-30T21:03:10.854Z,73.60
2019-03-30T21:08:11.038Z,63.30
2019-03-30T21:13:11.251Z,70.53
2019-03-30T21:18:11.502Z,63.80
2019-03-30T21:23:11.697Z,50.73
2019-03-30T21:28:11.888Z,68.27
2019-03-30T21:33:12.078Z,56.50
2019-03-30T21:38:12.838Z,66.17
2019-03-30T21:43:13.102Z,51.97
2019-03-30T21:48:13.300Z,50.30
2019-03-30T21:53:13.763Z,55.67
2019-03-30T21:58:14.010Z,54.87
2019-03-30T22:03:14.232Z,51.00
2019-03-30T22:08:17.136Z,44.67
2019-03-30T22:13:16.728Z,40.20
2019-03-30T22:18:16.910Z,39.33
2019-03-30T22:23:17.662Z,52.37
2019-03-30T22:28:18.094Z,53.97
2019-03-30T22:33:18.287Z,42.57
2019-03-30T22:38:18.466Z,53.17
2019-03-30T22:43:18.734Z,60.90
2019-03-30T22:48:19.186Z,36.37
2019-03-30T22:53:19.403Z,39.97
2019-03-30T22:58:19.649Z,49.40
2019-03-30T23:03:19.842Z,43.83
2019-03-30T23:08:20.050Z,46.83
2019-03-30T23:13:20.230Z,57.73
2019-03-30T23:18:20.414Z,48.73
2019-03-30T23:23:20.603Z,36.03
2019-03-30T23:28:22.175Z,44.33
2019-03-30T23:33:23.454Z,56.63
2019-03-30T23:38:23.724Z,43.70
2019-03-30T23:43:23.926Z,38.70
2019-03-30T23:48:24.126Z,41.53
2019-03-30T23:53:24.307Z,49.97
2019-03-30T23:58:24.498Z,44.83
